Time;durP1;ratioP1;P1;durP2;ratioP2;P2;SDS_P1;SDS_P2;PMS_P1;PMS_P2;Temp;Humidity;BMP_temperature;BMP_pressure;BME280_temperature;BME280_humidity;BME280_pressure;Samples;Min_cycle;Max_cycle;Signal;HPM_P1;HPM_P2
2023/08/05 00:01:40;;;;;;;4.30;2.72;;;20.60;92.20;;;;;;10489062;28;20894;-65
2023/08/05 00:06:41;;;;;;;3.85;2.85;;;20.60;92.20;;;;;;10490553;28;20487;-65
2023/08/05 00:11:42;;;;;;;3.85;2.95;;;20.60;92.20;;;;;;10489181;28;20404;-66
2023/08/05 00:16:42;;;;;;;4.10;2.90;;;20.50;92.20;;;;;;10495309;28;20779;-66
2023/08/05 00:21:43;;;;;;;3.97;2.80;;;20.50;92.10;;;;;;10495004;28;20990;-65
2023/08/05 00:26:43;;;;;;;4.70;2.90;;;20.40;92.10;;;;;;10495997;28;20407;-66
2023/08/05 00:31:44;;;;;;;3.60;2.70;;;20.40;92.10;;;;;;10488647;28;20817;-65
2023/08/05 00:36:45;;;;;;;4.10;2.80;;;20.40;92.00;;;;;;10486335;28;20403;-66
2023/08/05 00:41:45;;;;;;;5.70;3.10;;;20.40;92.00;;;;;;10491604;28;20772;-65
2023/08/05 00:46:46;;;;;;;4.43;2.50;;;20.40;92.00;;;;;;10485001;28;20407;-65
2023/08/05 00:51:48;;;;;;;4.97;2.77;;;20.30;91.90;;;;;;10492369;28;20477;-65
2023/08/05 00:56:48;;;;;;;3.50;2.65;;;20.30;91.90;;;;;;10491615;28;20408;-65
2023/08/05 01:01:49;;;;;;;4.50;2.60;;;20.30;91.80;;;;;;10487351;28;20403;-65
2023/08/05 01:06:51;;;;;;;5.13;2.70;;;20.30;91.80;;;;;;10487178;28;20418;-65
2023/08/05 01:11:52;;;;;;;3.85;2.70;;;20.20;91.80;;;;;;10488767;28;20769;-65
2023/08/05 01:16:53;;;;;;;3.72;2.78;;;20.20;91.80;;;;;;10490925;28;20391;-65
2023/08/05 01:22:32;;;;;;;4.30;2.75;;;20.20;91.80;;;;;;10490287;28;20403;-66
2023/08/05 01:27:34;;;;;;;4.83;2.87;;;20.10;91.70;;;;;;10468176;28;20414;-66
2023/08/05 01:32:37;;;;;;;4.28;2.80;;;20.10;91.70;;;;;;10489968;28;20480;-64
2023/08/05 01:37:37;;;;;;;4.43;3.00;;;20.10;91.80;;;;;;10487796;28;20406;-65
2023/08/05 01:42:38;;;;;;;4.63;2.97;;;20.10;91.80;;;;;;10484559;28;20901;-65
2023/08/05 01:47:38;;;;;;;4.47;2.90;;;20.00;91.80;;;;;;10494839;28;20399;-66
2023/08/05 01:52:39;;;;;;;4.00;2.43;;;20.00;91.80;;;;;;10494601;28;20408;-65
2023/08/05 01:57:39;;;;;;;4.10;3.13;;;20.00;91.80;;;;;;10491607;28;20836;-65
2023/08/05 02:02:40;;;;;;;4.43;2.90;;;20.00;91.80;;;;;;10498155;28;20462;-66
2023/08/05 02:07:41;;;;;;;4.27;2.90;;;20.00;91.80;;;;;;10500210;28;20770;-65
2023/08/05 02:12:41;;;;;;;6.00;3.10;;;20.00;91.90;;;;;;10492961;28;20419;-65
2023/08/05 02:17:42;;;;;;;4.30;3.00;;;19.90;91.80;;;;;;10503137;28;20397;-65
2023/08/05 02:22:43;;;;;;;3.80;2.80;;;19.90;91.90;;;;;;10490943;28;20413;-66
2023/08/05 02:27:43;;;;;;;4.90;2.90;;;19.90;91.90;;;;;;10497750;28;20416;-65
2023/08/05 02:32:44;;;;;;;4.43;3.13;;;19.90;91.90;;;;;;10488714;28;20438;-65
2023/08/05 02:37:44;;;;;;;3.23;2.80;;;19.80;91.90;;;;;;10495071;28;20451;-65
2023/08/05 02:42:45;;;;;;;3.77;2.60;;;19.80;91.90;;;;;;10492485;28;20973;-65
2023/08/05 02:47:46;;;;;;;4.13;2.90;;;19.80;92.00;;;;;;10494747;28;20731;-65
2023/08/05 02:52:47;;;;;;;4.07;3.13;;;19.80;92.00;;;;;;10501368;28;20407;-65
2023/08/05 02:57:47;;;;;;;4.18;2.97;;;19.80;92.00;;;;;;10503328;28;20387;-65
2023/08/05 03:02:48;;;;;;;3.90;2.83;;;19.80;92.10;;;;;;10497294;28;20392;-65
2023/08/05 03:07:48;;;;;;;4.15;3.05;;;19.70;92.10;;;;;;10502645;28;20394;-65
2023/08/05 03:12:49;;;;;;;4.32;2.97;;;19.70;92.10;;;;;;10493813;28;20412;-65
2023/08/05 03:17:50;;;;;;;4.37;3.00;;;19.70;92.10;;;;;;10501898;28;20450;-65
2023/08/05 03:22:55;;;;;;;4.77;3.00;;;19.70;92.10;;;;;;10494021;28;20403;-65
2023/08/05 03:27:55;;;;;;;4.43;3.20;;;19.70;92.10;;;;;;10501432;28;20398;-64
2023/08/05 03:32:56;;;;;;;4.23;3.00;;;19.60;92.20;;;;;;10492313;28;20910;-66
2023/08/05 03:38:00;;;;;;;4.80;3.13;;;19.60;92.20;;;;;;10488656;28;20408;-65
2023/08/05 03:43:01;;;;;;;4.90;3.30;;;19.60;92.20;;;;;;10487835;28;20404;-65
2023/08/05 03:48:02;;;;;;;4.93;3.33;;;19.60;92.20;;;;;;10505731;28;20411;-65
2023/08/05 03:53:02;;;;;;;5.80;3.30;;;19.60;92.30;;;;;;10488819;28;20403;-65
2023/08/05 03:58:04;;;;;;;4.63;3.65;;;19.60;92.30;;;;;;10496151;28;20762;-65
2023/08/05 04:03:04;;;;;;;4.90;3.38;;;19.60;92.30;;;;;;10488335;28;20443;-66
2023/08/05 04:08:05;;;;;;;4.18;3.10;;;19.60;92.40;;;;;;10498093;28;20489;-65
2023/08/05 04:13:08;;;;;;;4.82;3.47;;;19.60;92.40;;;;;;10490954;28;20414;-66
2023/08/05 04:18:09;;;;;;;4.82;3.55;;;19.60;92.40;;;;;;10496088;28;20400;-65
2023/08/05 04:23:10;;;;;;;5.40;3.42;;;19.60;92.40;;;;;;10490104;28;20412;-66
2023/08/05 04:28:11;;;;;;;5.57;3.80;;;19.50;92.40;;;;;;10486827;28;20829;-65
2023/08/05 04:33:13;;;;;;;5.47;3.70;;;19.60;92.50;;;;;;10511026;28;20414;-65
2023/08/05 04:38:14;;;;;;;5.50;3.67;;;19.50;92.50;;;;;;10496172;28;20403;-65
2023/08/05 04:43:16;;;;;;;4.85;3.75;;;19.60;92.50;;;;;;10503804;28;20548;-65
2023/08/05 04:48:17;;;;;;;4.43;3.30;;;19.50;92.50;;;;;;10500724;28;20408;-65
2023/08/05 04:53:18;;;;;;;6.30;3.60;;;19.60;92.50;;;;;;10492038;28;20923;-65
2023/08/05 04:58:19;;;;;;;5.32;3.80;;;19.60;92.50;;;;;;10501433;28;20394;-65
2023/08/05 05:03:19;;;;;;;6.00;3.72;;;19.60;92.50;;;;;;10486559;28;20912;-65
2023/08/05 05:08:20;;;;;;;5.47;3.70;;;19.60;92.50;;;;;;10489335;28;20483;-65
2023/08/05 05:13:21;;;;;;;4.90;3.30;;;19.50;92.40;;;;;;10496556;28;20620;-65
2023/08/05 05:18:21;;;;;;;5.13;3.47;;;19.60;92.50;;;;;;10495824;28;20390;-65
2023/08/05 05:23:22;;;;;;;4.43;3.60;;;19.50;92.40;;;;;;10498885;28;20910;-65
2023/08/05 05:28:23;;;;;;;5.63;3.63;;;19.60;92.50;;;;;;10498459;28;20402;-65
2023/08/05 05:33:23;;;;;;;4.70;3.40;;;19.60;92.50;;;;;;10484902;28;20502;-65
2023/08/05 05:38:24;;;;;;;5.28;3.60;;;19.60;92.50;;;;;;10495454;28;20402;-66
2023/08/05 05:43:25;;;;;;;5.60;4.07;;;19.50;92.50;;;;;;10487722;28;20399;-67
2023/08/05 05:48:27;;;;;;;4.83;3.60;;;19.60;92.50;;;;;;10501213;28;20452;-65
2023/08/05 05:53:27;;;;;;;5.85;4.18;;;19.60;92.50;;;;;;10493128;28;20482;-65
2023/08/05 05:58:28;;;;;;;5.93;3.92;;;19.60;92.50;;;;;;10494143;28;20384;-65
2023/08/05 06:03:32;;;;;;;5.27;3.60;;;19.60;92.50;;;;;;10475825;28;20498;-65
2023/08/05 06:08:34;;;;;;;5.47;3.88;;;19.60;92.40;;;;;;10484887;28;20458;-64
2023/08/05 06:13:35;;;;;;;6.25;4.18;;;19.60;92.40;;;;;;10484089;28;20419;-65
2023/08/05 06:18:35;;;;;;;5.60;3.80;;;19.60;92.50;;;;;;10493501;28;20945;-65
2023/08/05 06:23:36;;;;;;;5.33;3.63;;;19.60;92.50;;;;;;10491490;28;20405;-65
2023/08/05 06:28:37;;;;;;;6.03;3.83;;;19.60;92.50;;;;;;10479788;28;20414;-65
2023/08/05 06:33:37;;;;;;;5.57;3.97;;;19.60;92.50;;;;;;10485597;28;20418;-65
2023/08/05 06:38:38;;;;;;;6.70;4.10;;;19.60;92.50;;;;;;10482471;28;20407;-64
2023/08/05 06:43:38;;;;;;;6.03;4.17;;;19.60;92.50;;;;;;10480774;28;20401;-64
2023/08/05 06:48:39;;;;;;;7.03;4.33;;;19.60;92.50;;;;;;10487189;28;20401;-65
2023/08/05 06:53:44;;;;;;;6.28;4.05;;;19.60;92.50;;;;;;10486593;28;20840;-65
2023/08/05 06:58:46;;;;;;;5.88;4.10;;;19.60;92.50;;;;;;10489243;28;20422;-65
2023/08/05 07:03:49;;;;;;;6.22;4.00;;;19.60;92.50;;;;;;10492083;28;20466;-65
2023/08/05 07:08:49;;;;;;;6.07;4.03;;;19.60;92.50;;;;;;10475154;28;20818;-65
2023/08/05 07:13:50;;;;;;;6.23;4.40;;;19.60;92.50;;;;;;10483584;28;20405;-64
2023/08/05 07:18:50;;;;;;;6.03;4.05;;;19.60;92.50;;;;;;10494746;28;20521;-65
2023/08/05 07:23:51;;;;;;;4.93;3.88;;;19.60;92.50;;;;;;10490894;28;20406;-65
2023/08/05 07:28:52;;;;;;;5.15;3.88;;;19.70;92.50;;;;;;10492224;28;20402;-65
2023/08/05 07:33:52;;;;;;;6.15;4.38;;;19.70;92.50;;;;;;10486117;28;20924;-65
2023/08/05 07:38:54;;;;;;;5.45;4.07;;;19.70;92.50;;;;;;10490064;28;20407;-65
2023/08/05 07:43:58;;;;;;;6.38;3.90;;;19.70;92.50;;;;;;10490103;28;20410;-65
2023/08/05 07:49:00;;;;;;;5.07;4.03;;;19.70;92.50;;;;;;10484189;28;20984;-65
2023/08/05 07:54:00;;;;;;;6.75;4.47;;;19.70;92.40;;;;;;10488077;28;20412;-65
2023/08/05 07:59:03;;;;;;;5.80;4.28;;;19.80;92.40;;;;;;10492177;28;20391;-65
2023/08/05 08:04:03;;;;;;;5.27;4.00;;;19.80;92.40;;;;;;10492215;28;20411;-68
2023/08/05 08:09:04;;;;;;;5.50;3.80;;;19.80;92.30;;;;;;10489034;28;20412;-64
2023/08/05 08:14:05;;;;;;;8.43;4.82;;;19.80;92.60;;;;;;10494118;28;20409;-65
2023/08/05 08:19:07;;;;;;;6.22;4.20;;;19.80;92.60;;;;;;10497969;28;20402;-65
2023/08/05 08:24:08;;;;;;;5.73;4.20;;;19.80;92.50;;;;;;10488738;28;20744;-65
2023/08/05 08:29:09;;;;;;;5.50;4.15;;;19.80;92.40;;;;;;10490404;28;20498;-65
2023/08/05 08:34:09;;;;;;;6.07;4.60;;;19.90;92.50;;;;;;10487904;28;20507;-65
2023/08/05 08:39:10;;;;;;;6.13;4.50;;;19.90;92.40;;;;;;10481814;28;20406;-66
2023/08/05 08:44:13;;;;;;;6.47;4.27;;;19.90;92.40;;;;;;10490779;28;20438;-65
2023/08/05 08:49:16;;;;;;;5.77;3.20;;;20.00;92.40;;;;;;10484418;28;20970;-67
2023/08/05 08:54:17;;;;;;;4.35;2.90;;;20.00;92.60;;;;;;10487087;28;20403;-68
2023/08/05 08:59:18;;;;;;;8.50;2.90;;;19.90;93.10;;;;;;10496908;28;20405;-69
2023/08/05 09:04:20;;;;;;;6.43;2.92;;;19.90;93.50;;;;;;10478476;28;20410;-69
2023/08/05 09:09:21;;;;;;;6.15;3.03;;;19.90;93.50;;;;;;10478339;28;20853;-69
2023/08/05 09:14:21;;;;;;;6.13;3.10;;;20.00;93.60;;;;;;10488704;28;20399;-68
2023/08/05 09:19:29;;;;;;;4.90;3.43;;;20.10;93.90;;;;;;10482362;28;20773;-69
2023/08/05 09:24:29;;;;;;;6.83;3.50;;;20.10;94.00;;;;;;10487667;28;20416;-72
2023/08/05 09:29:30;;;;;;;5.80;3.50;;;20.10;94.00;;;;;;10492366;28;20415;-69
2023/08/05 09:34:41;;;;;;;7.13;3.70;;;20.10;94.50;;;;;;10491801;28;20794;-69
2023/08/05 09:39:50;;;;;;;8.10;4.00;;;20.10;94.30;;;;;;10482146;28;20900;-70
2023/08/05 09:44:54;;;;;;;5.47;3.47;;;20.20;94.40;;;;;;10476728;28;20470;-69
2023/08/05 09:49:56;;;;;;;5.95;3.65;;;20.30;94.20;;;;;;10478124;28;20939;-69
2023/08/05 09:55:02;;;;;;;6.93;4.13;;;20.40;94.20;;;;;;10488672;28;20428;-69
2023/08/05 10:00:08;;;;;;;6.35;4.05;;;20.60;94.40;;;;;;10503263;28;20945;-69
2023/08/05 10:05:10;;;;;;;6.95;4.50;;;20.70;93.60;;;;;;10486481;28;20778;-69
2023/08/05 10:10:16;;;;;;;5.55;4.03;;;20.70;93.50;;;;;;10483340;28;20417;-69
2023/08/05 10:15:31;;;;;;;5.75;4.40;;;20.70;93.80;;;;;;10482057;28;20428;-69
2023/08/05 10:20:36;;;;;;;6.60;4.22;;;20.70;93.20;;;;;;10488714;28;20479;-69
2023/08/05 10:25:47;;;;;;;6.77;4.60;;;20.60;93.10;;;;;;10493443;28;20481;-69
2023/08/05 10:30:48;;;;;;;5.40;4.43;;;20.50;93.10;;;;;;10500587;28;21039;-69
2023/08/05 10:35:49;;;;;;;6.37;5.03;;;20.40;93.30;;;;;;10501305;28;20412;-69
2023/08/05 10:41:03;;;;;;;7.53;5.20;;;20.40;93.70;;;;;;10491803;28;20417;-69
2023/08/05 10:46:07;;;;;;;6.50;5.00;;;20.50;93.90;;;;;;10482000;28;20394;-69
2023/08/05 10:51:08;;;;;;;7.10;5.60;;;20.60;94.10;;;;;;10495246;28;20478;-68
2023/08/05 10:56:13;;;;;;;7.45;5.60;;;20.70;93.90;;;;;;10497089;28;20407;-68
2023/08/05 11:01:14;;;;;;;6.80;5.80;;;20.80;94.00;;;;;;10488201;28;20469;-68
2023/08/05 11:06:20;;;;;;;9.88;5.20;;;21.00;94.30;;;;;;10494581;28;21052;-68
2023/08/05 11:11:22;;;;;;;6.60;4.60;;;21.20;94.10;;;;;;10495153;28;20424;-69
2023/08/05 11:16:23;;;;;;;6.13;4.10;;;21.30;93.50;;;;;;10501109;28;20388;-69
2023/08/05 11:21:23;;;;;;;6.47;4.37;;;21.40;92.90;;;;;;10488600;28;20410;-68
2023/08/05 11:26:25;;;;;;;5.67;3.90;;;21.50;92.40;;;;;;10487778;28;20923;-68
2023/08/05 11:31:26;;;;;;;5.35;3.92;;;21.60;92.50;;;;;;10495682;28;20677;-69
2023/08/05 11:36:28;;;;;;;4.80;3.35;;;21.60;92.20;;;;;;10497330;28;20533;-68
2023/08/05 11:41:30;;;;;;;3.80;2.88;;;21.60;91.80;;;;;;10497733;28;20781;-69
2023/08/05 11:46:31;;;;;;;3.45;2.85;;;21.70;91.40;;;;;;10489811;28;20412;-69
2023/08/05 11:51:52;;;;;;;5.00;2.90;;;21.80;90.80;;;;;;10484392;28;20447;-69
2023/08/05 11:56:52;;;;;;;5.00;2.97;;;21.90;90.40;;;;;;10473050;28;20407;-69
2023/08/05 12:01:53;;;;;;;3.72;3.00;;;22.00;90.20;;;;;;10487696;28;21159;-68
2023/08/05 12:06:54;;;;;;;4.60;2.63;;;22.00;90.40;;;;;;10483988;28;20701;-68
2023/08/05 12:11:57;;;;;;;7.20;3.63;;;22.10;90.70;;;;;;10487765;28;20423;-69
2023/08/05 12:16:59;;;;;;;3.60;2.75;;;22.10;90.70;;;;;;10489920;28;21754;-68
2023/08/05 12:22:00;;;;;;;3.67;2.85;;;22.10;89.80;;;;;;10494757;28;20430;-73
2023/08/05 12:27:00;;;;;;;3.83;3.00;;;22.10;89.80;;;;;;10495667;28;20956;-69
2023/08/05 12:32:01;;;;;;;4.07;2.80;;;22.10;89.40;;;;;;10500343;28;20536;-69
2023/08/05 12:37:02;;;;;;;2.63;2.40;;;22.10;88.50;;;;;;10491725;28;20395;-69
2023/08/05 12:42:03;;;;;;;2.90;2.50;;;22.00;88.10;;;;;;10496308;28;20401;-68
2023/08/05 12:47:03;;;;;;;5.07;2.60;;;21.90;88.60;;;;;;10486300;28;20434;-69
2023/08/05 12:52:05;;;;;;;3.03;2.63;;;21.90;88.90;;;;;;10496877;28;20457;-68
2023/08/05 12:57:05;;;;;;;3.03;2.70;;;21.80;88.80;;;;;;10498923;28;20815;-69
2023/08/05 13:02:06;;;;;;;3.57;2.37;;;21.80;90.00;;;;;;10489100;28;20796;-69
2023/08/05 13:07:07;;;;;;;2.60;2.40;;;21.80;89.50;;;;;;10488730;28;20799;-69
2023/08/05 13:12:07;;;;;;;4.03;2.70;;;21.80;89.90;;;;;;10495219;28;20408;-68
2023/08/05 13:17:08;;;;;;;3.73;2.50;;;21.50;90.00;;;;;;10492597;28;20405;-73
2023/08/05 13:22:09;;;;;;;3.50;3.00;;;21.40;90.20;;;;;;10487012;28;20409;-69
2023/08/05 13:27:10;;;;;;;2.67;2.47;;;21.40;90.40;;;;;;10487407;28;20416;-69
2023/08/05 13:32:10;;;;;;;4.25;2.80;;;21.60;90.40;;;;;;10487093;28;20502;-69
2023/08/05 13:37:11;;;;;;;3.13;2.50;;;21.50;90.40;;;;;;10485425;28;20428;-65
2023/08/05 13:42:11;;;;;;;5.05;2.85;;;21.40;90.50;;;;;;10487714;28;20430;-65
2023/08/05 13:47:12;;;;;;;4.57;3.40;;;21.40;90.50;;;;;;10476838;28;20407;-65
2023/08/05 13:52:13;;;;;;;3.33;3.00;;;21.30;90.70;;;;;;10490055;28;20984;-65
2023/08/05 13:57:13;;;;;;;5.35;3.60;;;21.30;91.00;;;;;;10481009;28;20900;-65
2023/08/05 14:02:14;;;;;;;7.05;4.32;;;21.20;91.20;;;;;;10494750;28;20407;-65
2023/08/05 14:07:14;;;;;;;4.28;3.45;;;21.10;91.40;;;;;;10505007;28;20537;-65
2023/08/05 14:12:15;;;;;;;6.20;4.27;;;21.10;91.50;;;;;;10502274;28;20462;-65
2023/08/05 14:17:15;;;;;;;5.67;3.60;;;21.10;91.60;;;;;;10492934;28;20687;-65
2023/08/05 14:22:16;;;;;;;3.70;3.30;;;21.10;91.70;;;;;;10497525;28;20395;-66
2023/08/05 14:27:17;;;;;;;5.73;3.30;;;20.70;91.70;;;;;;10494819;28;21013;-67
2023/08/05 14:32:17;;;;;;;5.33;3.40;;;21.00;91.90;;;;;;10497111;28;20914;-66
2023/08/05 14:37:18;;;;;;;5.13;4.07;;;21.00;92.00;;;;;;10492876;28;20404;-66
2023/08/05 14:42:19;;;;;;;4.73;3.80;;;21.00;92.10;;;;;;10496759;28;20400;-67
2023/08/05 14:47:19;;;;;;;4.90;3.90;;;21.00;92.40;;;;;;10492780;28;20429;-66
2023/08/05 14:52:20;;;;;;;4.87;3.90;;;20.90;92.20;;;;;;10496112;28;20405;-65
2023/08/05 14:57:20;;;;;;;6.40;4.50;;;20.90;92.30;;;;;;10495368;28;20457;-66
2023/08/05 15:02:21;;;;;;;5.63;4.77;;;21.00;92.40;;;;;;10497476;28;20406;-66
2023/08/05 15:07:22;;;;;;;5.53;4.17;;;20.90;92.50;;;;;;10493720;28;20629;-65
2023/08/05 15:12:22;;;;;;;6.60;4.30;;;20.90;92.50;;;;;;10493302;28;20403;-66
2023/08/05 15:17:23;;;;;;;5.93;4.73;;;20.80;92.60;;;;;;10501444;28;20958;-67
2023/08/05 15:22:24;;;;;;;4.95;4.40;;;20.80;92.60;;;;;;10502516;28;20403;-66
2023/08/05 15:27:24;;;;;;;5.50;4.85;;;20.80;92.70;;;;;;10505000;28;20410;-66
2023/08/05 15:32:25;;;;;;;5.17;4.23;;;20.80;92.70;;;;;;10489950;28;20446;-65
2023/08/05 15:37:26;;;;;;;8.02;4.68;;;20.70;92.80;;;;;;10497207;28;20408;-64
2023/08/05 15:42:27;;;;;;;5.10;4.60;;;20.90;92.90;;;;;;10490708;28;20887;-67
2023/08/05 15:47:27;;;;;;;5.47;4.43;;;20.70;92.90;;;;;;10485652;28;20411;-66
2023/08/05 15:52:32;;;;;;;6.75;4.60;;;20.70;92.90;;;;;;10480474;28;20426;-65
2023/08/05 15:57:32;;;;;;;5.57;4.37;;;20.70;93.00;;;;;;10492881;28;20422;-65
2023/08/05 16:02:34;;;;;;;6.63;4.40;;;20.70;93.00;;;;;;10483153;28;20849;-66
2023/08/05 16:07:36;;;;;;;5.55;4.65;;;20.60;93.00;;;;;;10479175;28;20470;-65
2023/08/05 16:12:37;;;;;;;5.00;4.43;;;20.60;93.00;;;;;;10495853;28;20962;-66
2023/08/05 16:17:37;;;;;;;4.87;4.13;;;20.60;93.10;;;;;;10487864;28;20416;-65
2023/08/05 16:22:38;;;;;;;5.37;4.37;;;20.60;93.10;;;;;;10499267;28;21785;-65
2023/08/05 16:27:40;;;;;;;5.20;4.47;;;20.60;93.10;;;;;;10503507;28;20938;-65
2023/08/05 16:32:41;;;;;;;6.15;4.85;;;20.60;93.10;;;;;;10492485;28;20415;-65
2023/08/05 16:37:42;;;;;;;5.70;4.80;;;20.60;93.20;;;;;;10495520;28;20398;-65
2023/08/05 16:42:42;;;;;;;5.10;4.57;;;20.60;93.20;;;;;;10492012;28;20406;-66
2023/08/05 16:47:43;;;;;;;5.30;4.80;;;20.50;93.20;;;;;;10489463;28;20406;-65
2023/08/05 16:52:44;;;;;;;5.47;4.47;;;20.50;93.20;;;;;;10497058;28;20406;-65
2023/08/05 16:57:44;;;;;;;5.20;4.63;;;20.50;93.20;;;;;;10495132;28;20936;-65
2023/08/05 17:02:45;;;;;;;5.10;4.57;;;20.50;93.30;;;;;;10491356;28;20422;-65
2023/08/05 17:07:45;;;;;;;6.97;5.10;;;20.50;93.30;;;;;;10497064;28;20406;-64
2023/08/05 17:12:46;;;;;;;6.20;4.68;;;20.50;93.30;;;;;;10497280;28;20463;-65
2023/08/05 17:17:47;;;;;;;6.63;4.65;;;20.50;93.40;;;;;;10489353;28;20430;-65
2023/08/05 17:22:48;;;;;;;7.13;5.97;;;20.50;93.60;;;;;;10493508;28;20404;-65
2023/08/05 17:27:48;;;;;;;6.00;5.20;;;20.40;93.50;;;;;;10490871;28;20473;-65
2023/08/05 17:32:49;;;;;;;7.60;5.63;;;20.40;93.60;;;;;;10490129;28;20499;-66
2023/08/05 17:37:49;;;;;;;6.97;5.43;;;20.40;93.50;;;;;;10487340;28;20903;-66
2023/08/05 17:42:50;;;;;;;5.17;4.57;;;20.40;93.50;;;;;;10490848;28;20394;-66
2023/08/05 17:47:51;;;;;;;5.63;4.53;;;20.40;93.50;;;;;;10484731;28;20403;-66
2023/08/05 17:52:51;;;;;;;6.43;4.77;;;20.40;93.60;;;;;;10492622;28;20407;-66
2023/08/05 17:57:52;;;;;;;7.70;5.30;;;20.40;93.80;;;;;;10484468;28;20444;-66
2023/08/05 18:02:54;;;;;;;6.57;4.93;;;20.30;93.80;;;;;;10480830;28;20406;-66
2023/08/05 18:07:54;;;;;;;6.43;5.30;;;20.30;93.90;;;;;;10465213;28;20928;-66
2023/08/05 18:12:55;;;;;;;6.13;5.07;;;20.30;93.80;;;;;;10476761;28;20462;-66
2023/08/05 18:17:56;;;;;;;9.25;4.90;;;20.30;93.80;;;;;;10481507;28;20406;-67
2023/08/05 18:22:56;;;;;;;7.10;4.90;;;20.20;93.80;;;;;;10484294;28;20400;-66
2023/08/05 18:27:57;;;;;;;6.60;4.97;;;20.30;93.80;;;;;;10490439;28;20405;-66
2023/08/05 18:32:59;;;;;;;6.78;4.70;;;20.20;93.70;;;;;;10479588;28;20412;-67
2023/08/05 18:38:00;;;;;;;6.22;5.13;;;20.20;93.70;;;;;;10481293;28;20409;-69
2023/08/05 18:43:01;;;;;;;6.28;4.75;;;20.20;93.70;;;;;;10477709;28;20417;-67
2023/08/05 18:48:02;;;;;;;6.15;4.57;;;20.20;93.70;;;;;;10486009;28;20789;-66
2023/08/05 18:53:04;;;;;;;5.63;4.50;;;20.20;93.70;;;;;;10489004;28;20567;-67
2023/08/05 18:58:04;;;;;;;6.57;4.93;;;20.20;93.90;;;;;;10487695;28;20409;-67
2023/08/05 19:03:05;;;;;;;7.00;5.23;;;20.10;93.70;;;;;;10489098;28;21070;-67
2023/08/05 19:08:06;;;;;;;5.90;4.70;;;20.10;93.70;;;;;;10491640;28;20493;-66
2023/08/05 19:13:06;;;;;;;5.70;4.90;;;20.10;93.70;;;;;;10484017;28;20415;-66
2023/08/05 19:18:07;;;;;;;6.78;4.63;;;20.10;93.70;;;;;;10482706;28;20439;-67
2023/08/05 19:23:10;;;;;;;5.38;4.60;;;20.10;93.70;;;;;;10484168;28;20494;-67
2023/08/05 19:28:11;;;;;;;7.25;4.68;;;20.10;93.70;;;;;;10487336;28;20553;-66
2023/08/05 19:33:12;;;;;;;6.77;4.80;;;20.00;93.70;;;;;;10490684;28;20412;-66
2023/08/05 19:38:12;;;;;;;5.63;5.03;;;20.00;93.70;;;;;;10484584;28;20404;-66
2023/08/05 19:43:13;;;;;;;5.43;4.50;;;20.00;93.70;;;;;;10484975;28;20405;-66
2023/08/05 19:48:14;;;;;;;5.10;4.40;;;20.00;93.70;;;;;;10493431;28;20406;-67
2023/08/05 19:53:14;;;;;;;5.37;4.33;;;20.00;93.70;;;;;;10484956;28;20422;-66
2023/08/05 19:58:15;;;;;;;5.50;4.53;;;20.00;93.70;;;;;;10483776;28;20486;-66
2023/08/05 20:03:17;;;;;;;4.87;4.37;;;20.00;93.70;;;;;;10487232;28;20394;-66
2023/08/05 20:08:18;;;;;;;5.60;4.50;;;20.00;93.80;;;;;;10481417;28;20514;-67
2023/08/05 20:13:19;;;;;;;5.63;4.35;;;19.90;93.80;;;;;;10492009;28;20409;-67
2023/08/05 20:18:21;;;;;;;6.73;4.70;;;19.90;93.80;;;;;;10485842;28;20414;-66
2023/08/05 20:23:22;;;;;;;5.00;4.28;;;19.90;93.80;;;;;;10490116;28;20416;-66
2023/08/05 20:28:22;;;;;;;5.10;4.13;;;19.90;93.80;;;;;;10493182;28;20396;-67
2023/08/05 20:33:23;;;;;;;5.20;4.67;;;19.90;93.80;;;;;;10490118;28;20708;-67
2023/08/05 20:38:25;;;;;;;5.93;4.67;;;19.90;94.10;;;;;;10481546;28;20419;-67
2023/08/05 20:43:25;;;;;;;5.23;4.40;;;19.80;93.90;;;;;;10488888;28;20423;-66
2023/08/05 20:48:26;;;;;;;5.10;4.60;;;19.90;93.90;;;;;;10488716;28;20972;-66
2023/08/05 20:53:26;;;;;;;5.80;4.90;;;19.80;93.90;;;;;;10489628;28;20406;-66
2023/08/05 20:58:27;;;;;;;5.33;4.40;;;19.80;93.90;;;;;;10484225;28;20707;-66
2023/08/05 21:03:28;;;;;;;5.20;4.70;;;19.80;94.10;;;;;;10481186;28;20739;-67
2023/08/05 21:08:29;;;;;;;6.10;4.78;;;19.80;93.90;;;;;;10486737;28;20397;-67
2023/08/05 21:13:30;;;;;;;4.93;4.37;;;19.80;93.90;;;;;;10485637;28;20416;-67
2023/08/05 21:18:32;;;;;;;6.00;4.60;;;19.80;93.90;;;;;;10486045;28;20773;-66
2023/08/05 21:23:33;;;;;;;5.45;4.90;;;19.80;93.90;;;;;;10480698;28;20484;-67
2023/08/05 21:28:34;;;;;;;6.78;5.05;;;19.80;93.90;;;;;;10481144;28;20400;-67
2023/08/05 21:33:35;;;;;;;6.40;5.05;;;19.70;93.90;;;;;;10482769;28;20946;-66
2023/08/05 21:38:35;;;;;;;6.67;4.67;;;19.90;93.90;;;;;;10475623;28;20403;-67
2023/08/05 21:43:36;;;;;;;5.40;4.70;;;19.70;93.90;;;;;;10479794;28;20399;-67
2023/08/05 21:48:37;;;;;;;5.10;4.57;;;19.70;93.90;;;;;;10485425;28;20390;-66
2023/08/05 21:53:37;;;;;;;6.00;5.13;;;19.70;93.90;;;;;;10486197;28;21148;-66
2023/08/05 21:58:38;;;;;;;6.30;4.63;;;19.70;93.90;;;;;;10491656;28;20386;-66
2023/08/05 22:03:39;;;;;;;5.63;5.03;;;19.70;93.90;;;;;;10495974;28;20465;-67
2023/08/05 22:08:39;;;;;;;5.97;5.00;;;19.70;93.90;;;;;;10492720;28;20938;-66
2023/08/05 22:13:40;;;;;;;6.43;5.00;;;19.70;94.30;;;;;;10493340;28;20925;-67
2023/08/05 22:18:41;;;;;;;5.50;4.67;;;19.60;93.90;;;;;;10487831;28;20411;-67
2023/08/05 22:23:41;;;;;;;5.77;5.17;;;19.60;94.00;;;;;;10499211;28;20809;-66
2023/08/05 22:28:42;;;;;;;6.00;5.00;;;19.60;94.00;;;;;;10506885;28;20535;-67
2023/08/05 22:33:42;;;;;;;6.23;5.10;;;19.60;94.10;;;;;;10498057;28;21115;-66
2023/08/05 22:38:44;;;;;;;6.70;5.30;;;19.60;94.00;;;;;;10501517;28;20435;-66
2023/08/05 22:43:45;;;;;;;6.40;5.30;;;19.60;94.00;;;;;;10492077;28;20454;-67
2023/08/05 22:48:46;;;;;;;6.20;5.60;;;19.60;94.00;;;;;;10497177;28;20397;-67
2023/08/05 22:53:48;;;;;;;7.60;5.50;;;19.60;94.00;;;;;;10495643;28;20465;-66
2023/08/05 22:58:53;;;;;;;7.30;5.50;;;19.50;94.00;;;;;;10501741;28;20407;-66
2023/08/05 23:03:53;;;;;;;7.25;5.70;;;19.50;94.10;;;;;;10504271;28;20405;-67
2023/08/05 23:08:54;;;;;;;6.15;5.47;;;19.50;94.10;;;;;;10507879;28;20934;-67
2023/08/05 23:13:55;;;;;;;7.53;5.57;;;19.50;94.10;;;;;;10500509;28;20419;-66
2023/08/05 23:18:56;;;;;;;6.38;5.57;;;19.50;94.10;;;;;;10504417;28;20443;-66
2023/08/05 23:23:59;;;;;;;6.43;5.40;;;19.50;94.10;;;;;;10502019;28;20937;-66
2023/08/05 23:28:59;;;;;;;6.90;5.73;;;19.50;94.10;;;;;;10503293;28;21066;-67
2023/08/05 23:34:00;;;;;;;6.83;5.87;;;19.40;94.10;;;;;;10493320;28;20492;-66
2023/08/05 23:39:01;;;;;;;6.47;5.78;;;19.50;94.10;;;;;;10495903;28;20398;-66
2023/08/05 23:44:01;;;;;;;7.15;6.13;;;19.40;94.10;;;;;;10501090;28;20401;-66
2023/08/05 23:49:02;;;;;;;6.47;5.82;;;19.40;94.10;;;;;;10491989;28;20420;-66
2023/08/05 23:54:03;;;;;;;7.47;6.32;;;19.40;94.10;;;;;;10493997;28;20401;-67
2023/08/05 23:59:03;;;;;;;7.50;6.38;;;19.40;94.20;;;;;;10493336;28;20402;-66
